Time;durP1;ratioP1;P1;durP2;ratioP2;P2;SDS_P1;SDS_P2;PMS_P1;PMS_P2;Temp;Humidity;BMP_temperature;BMP_pressure;BME280_temperature;BME280_humidity;BME280_pressure;Samples;Min_cycle;Max_cycle;Signal;HPM_P1;HPM_P2
2022/10/13 00:00:25;;;;;;;9.77;2.95;;;;;;;;;;2303294;58;21056;-82
2022/10/13 00:02:52;;;;;;;10.77;3.03;;;;;;;;;;2303009;58;21135;-82
2022/10/13 00:05:19;;;;;;;5.85;3.15;;;;;;;;;;2303088;58;21052;-82
2022/10/13 00:07:46;;;;;;;5.70;2.78;;;;;;;;;;2303080;58;21616;-82
2022/10/13 00:10:13;;;;;;;7.03;3.35;;;;;;;;;;2303365;58;21646;-82
2022/10/13 00:12:40;;;;;;;9.23;3.92;;;;;;;;;;2540586;54;21655;-82
2022/10/13 00:15:08;;;;;;;6.00;2.87;;;;;;;;;;2540710;54;21021;-82
2022/10/13 00:17:35;;;;;;;8.07;3.70;;;;;;;;;;2303645;58;21040;-82
2022/10/13 00:20:02;;;;;;;5.43;3.22;;;;;;;;;;2540781;54;21047;-82
2022/10/13 00:22:29;;;;;;;9.60;3.92;;;;;;;;;;2539824;54;21120;-82
2022/10/13 00:24:56;;;;;;;10.23;3.83;;;;;;;;;;2302667;58;21092;-82
2022/10/13 00:27:23;;;;;;;10.30;3.45;;;;;;;;;;2303413;58;21071;-82
2022/10/13 00:29:50;;;;;;;10.60;3.42;;;;;;;;;;2540395;54;21028;-82
2022/10/13 00:32:17;;;;;;;13.50;3.40;;;;;;;;;;2303538;58;21067;-82
2022/10/13 00:34:44;;;;;;;10.27;3.45;;;;;;;;;;2540853;54;21104;-82
2022/10/13 00:37:11;;;;;;;7.00;3.25;;;;;;;;;;2302787;58;21040;-82
2022/10/13 00:39:38;;;;;;;10.50;3.50;;;;;;;;;;2539545;54;21059;-82
2022/10/13 00:42:07;;;;;;;9.93;3.72;;;;;;;;;;2539994;54;21028;-82
2022/10/13 00:44:59;;;;;;;9.63;4.80;;;;;;;;;;2303691;58;21068;-82
2022/10/13 00:47:27;;;;;;;8.55;3.50;;;;;;;;;;2540749;54;21620;-82
2022/10/13 00:49:54;;;;;;;10.57;3.33;;;;;;;;;;2540287;54;21040;-82
2022/10/13 00:52:21;;;;;;;8.45;3.47;;;;;;;;;;2303062;58;21151;-82
2022/10/13 00:54:49;;;;;;;11.45;3.70;;;;;;;;;;2540136;54;21052;-82
2022/10/13 00:57:17;;;;;;;12.20;4.30;;;;;;;;;;2302700;58;21101;-82
2022/10/13 00:59:44;;;;;;;8.27;3.10;;;;;;;;;;2303307;58;21040;-82
2022/10/13 01:02:11;;;;;;;6.25;3.28;;;;;;;;;;2303083;58;21095;-82
2022/10/13 01:04:42;;;;;;;9.63;3.35;;;;;;;;;;2303249;58;21044;-83
2022/10/13 01:07:09;;;;;;;8.20;3.92;;;;;;;;;;2540465;54;21067;-83
2022/10/13 01:09:36;;;;;;;11.20;3.75;;;;;;;;;;2540225;54;21024;-82
2022/10/13 01:12:10;;;;;;;10.68;3.80;;;;;;;;;;2302869;58;21115;-82
2022/10/13 01:14:41;;;;;;;9.75;3.65;;;;;;;;;;2302634;58;21112;-83
2022/10/13 01:17:13;;;;;;;9.68;3.47;;;;;;;;;;2303364;58;21143;-82
2022/10/13 01:19:58;;;;;;;9.50;3.40;;;;;;;;;;2540795;54;21116;-82
2022/10/13 01:22:35;;;;;;;8.18;3.05;;;;;;;;;;2540149;54;21039;-82
2022/10/13 01:25:06;;;;;;;6.18;2.92;;;;;;;;;;2540161;54;21052;-82
2022/10/13 01:27:50;;;;;;;7.68;4.28;;;;;;;;;;2303388;58;21087;-83
2022/10/13 01:30:18;;;;;;;11.30;3.65;;;;;;;;;;2540286;54;21148;-82
2022/10/13 01:33:01;;;;;;;7.75;3.05;;;;;;;;;;2303190;58;21171;-82
2022/10/13 01:35:33;;;;;;;13.10;3.33;;;;;;;;;;2541082;54;21040;-82
2022/10/13 01:38:04;;;;;;;7.22;3.78;;;;;;;;;;2302867;58;21033;-82
2022/10/13 01:40:34;;;;;;;6.28;3.42;;;;;;;;;;2540733;54;21032;-82
2022/10/13 01:43:02;;;;;;;7.97;3.58;;;;;;;;;;2540623;54;21033;-82
2022/10/13 01:45:31;;;;;;;7.53;2.90;;;;;;;;;;2303293;58;21165;-82
2022/10/13 01:47:59;;;;;;;8.60;3.90;;;;;;;;;;2303084;58;21619;-82
2022/10/13 01:50:26;;;;;;;7.18;3.62;;;;;;;;;;2303120;58;21103;-82
2022/10/13 01:52:54;;;;;;;10.32;3.70;;;;;;;;;;2540314;54;21111;-82
2022/10/13 01:55:21;;;;;;;9.10;3.70;;;;;;;;;;2302848;58;21052;-82
2022/10/13 01:57:48;;;;;;;8.15;3.62;;;;;;;;;;2303186;58;21056;-82
2022/10/13 02:00:17;;;;;;;12.20;3.35;;;;;;;;;;2540693;54;21028;-82
2022/10/13 02:02:47;;;;;;;6.78;3.60;;;;;;;;;;2302489;58;21032;-82
2022/10/13 02:05:17;;;;;;;6.60;3.40;;;;;;;;;;2540540;54;21138;-82
2022/10/13 02:07:46;;;;;;;6.90;4.00;;;;;;;;;;2303173;58;21044;-82
2022/10/13 02:10:17;;;;;;;7.32;3.53;;;;;;;;;;2303029;58;21103;-82
2022/10/13 02:12:48;;;;;;;6.75;3.60;;;;;;;;;;2302279;58;21072;-83
2022/10/13 02:15:16;;;;;;;7.53;3.20;;;;;;;;;;2302926;58;21587;-81
2022/10/13 02:17:43;;;;;;;10.02;4.28;;;;;;;;;;2539939;54;21056;-82
2022/10/13 02:20:11;;;;;;;10.43;4.00;;;;;;;;;;2540297;54;21613;-82
2022/10/13 02:22:40;;;;;;;10.60;4.47;;;;;;;;;;2302675;58;21048;-82
2022/10/13 02:25:08;;;;;;;8.90;3.65;;;;;;;;;;2303001;58;21115;-82
2022/10/13 02:27:35;;;;;;;9.40;4.55;;;;;;;;;;2302965;58;21203;-82
2022/10/13 02:30:02;;;;;;;7.00;3.62;;;;;;;;;;2539585;54;21081;-82
2022/10/13 02:32:29;;;;;;;11.10;5.25;;;;;;;;;;2303045;58;21548;-82
2022/10/13 02:34:55;;;;;;;8.77;4.25;;;;;;;;;;2540376;54;21100;-82
2022/10/13 02:37:24;;;;;;;6.50;4.12;;;;;;;;;;2540267;54;21033;-82
2022/10/13 02:39:51;;;;;;;7.00;3.95;;;;;;;;;;2540495;54;21096;-82
2022/10/13 02:42:18;;;;;;;14.25;4.55;;;;;;;;;;2303123;58;21621;-82
2022/10/13 02:44:45;;;;;;;11.48;4.10;;;;;;;;;;2540411;54;21084;-82
2022/10/13 02:47:12;;;;;;;8.55;3.83;;;;;;;;;;2303567;58;21132;-82
2022/10/13 02:49:39;;;;;;;8.23;3.45;;;;;;;;;;2303355;58;21064;-82
2022/10/13 02:52:06;;;;;;;12.60;4.78;;;;;;;;;;2540411;54;21039;-82
2022/10/13 02:54:33;;;;;;;11.80;4.00;;;;;;;;;;2302373;58;21159;-82
2022/10/13 02:57:00;;;;;;;11.32;4.62;;;;;;;;;;2303345;58;21119;-82
2022/10/13 02:59:26;;;;;;;8.65;4.50;;;;;;;;;;2303060;58;21044;-83
2022/10/13 03:01:54;;;;;;;10.70;4.93;;;;;;;;;;2303188;58;21099;-82
2022/10/13 03:04:21;;;;;;;7.65;4.12;;;;;;;;;;2540489;54;21104;-82
2022/10/13 03:06:47;;;;;;;8.68;3.72;;;;;;;;;;2540563;54;21059;-82
2022/10/13 03:09:15;;;;;;;7.65;4.20;;;;;;;;;;2540687;54;21731;-82
2022/10/13 03:11:42;;;;;;;12.13;4.05;;;;;;;;;;2540615;54;21111;-82
2022/10/13 03:14:09;;;;;;;9.77;4.32;;;;;;;;;;2540197;54;21056;-83
2022/10/13 03:16:36;;;;;;;9.30;4.30;;;;;;;;;;2303892;58;21556;-82
2022/10/13 03:19:03;;;;;;;8.52;4.28;;;;;;;;;;2540666;54;21048;-85
2022/10/13 03:21:30;;;;;;;12.10;4.93;;;;;;;;;;2540555;54;21088;-82
2022/10/13 03:23:57;;;;;;;7.57;4.12;;;;;;;;;;2302048;58;21223;-82
2022/10/13 03:26:24;;;;;;;8.68;4.03;;;;;;;;;;2302841;58;21527;-82
2022/10/13 03:28:52;;;;;;;8.32;4.62;;;;;;;;;;2303592;58;21116;-82
2022/10/13 03:31:19;;;;;;;6.68;3.75;;;;;;;;;;2302085;58;21040;-82
2022/10/13 03:33:46;;;;;;;12.15;4.35;;;;;;;;;;2540685;54;21036;-82
2022/10/13 03:36:13;;;;;;;5.82;4.10;;;;;;;;;;2540691;54;21595;-83
2022/10/13 03:38:41;;;;;;;9.35;4.10;;;;;;;;;;2301721;58;21067;-82
2022/10/13 03:41:08;;;;;;;10.77;5.30;;;;;;;;;;2302574;58;21037;-83
2022/10/13 03:43:35;;;;;;;13.55;5.70;;;;;;;;;;2539505;54;21125;-82
2022/10/13 03:46:03;;;;;;;10.00;4.43;;;;;;;;;;2540248;54;21044;-83
2022/10/13 03:48:30;;;;;;;7.18;4.03;;;;;;;;;;2302210;58;21052;-83
2022/10/13 03:50:57;;;;;;;8.05;4.05;;;;;;;;;;2302778;58;21579;-82
2022/10/13 03:53:25;;;;;;;8.68;4.12;;;;;;;;;;2539048;54;21194;-82
2022/10/13 03:55:52;;;;;;;12.13;5.45;;;;;;;;;;2538888;54;21615;-83
2022/10/13 03:58:20;;;;;;;8.60;4.55;;;;;;;;;;2539974;54;21161;-84
2022/10/13 04:00:47;;;;;;;10.27;4.57;;;;;;;;;;2539874;54;21520;-83
2022/10/13 04:03:14;;;;;;;11.35;4.90;;;;;;;;;;2540831;54;21044;-84
2022/10/13 04:05:41;;;;;;;10.98;4.97;;;;;;;;;;2302614;58;21103;-84
2022/10/13 04:08:08;;;;;;;10.45;4.25;;;;;;;;;;2303011;58;21135;-83
2022/10/13 04:10:35;;;;;;;7.00;4.25;;;;;;;;;;2539616;54;21056;-83
2022/10/13 04:13:02;;;;;;;11.50;5.53;;;;;;;;;;2540530;54;21020;-84
2022/10/13 04:15:29;;;;;;;8.45;4.80;;;;;;;;;;2302577;58;21060;-84
2022/10/13 04:17:56;;;;;;;9.90;4.97;;;;;;;;;;2303069;58;21156;-83
2022/10/13 04:20:23;;;;;;;8.95;4.35;;;;;;;;;;2302792;58;21060;-84
2022/10/13 04:22:50;;;;;;;15.52;6.07;;;;;;;;;;2302345;58;21540;-83
2022/10/13 04:25:17;;;;;;;10.15;5.28;;;;;;;;;;2540072;54;21109;-83
2022/10/13 04:27:46;;;;;;;9.85;4.65;;;;;;;;;;2302347;58;21036;-84
2022/10/13 04:30:14;;;;;;;8.57;5.15;;;;;;;;;;2539393;54;21059;-84
2022/10/13 04:32:41;;;;;;;9.57;4.78;;;;;;;;;;2539569;54;21539;-83
2022/10/13 04:35:08;;;;;;;14.38;5.65;;;;;;;;;;2303153;58;21056;-83
2022/10/13 04:37:35;;;;;;;13.07;5.30;;;;;;;;;;2539174;54;21112;-83
2022/10/13 04:40:02;;;;;;;13.68;5.72;;;;;;;;;;2302797;58;21619;-83
2022/10/13 04:42:29;;;;;;;10.35;5.35;;;;;;;;;;2302687;58;21088;-83
2022/10/13 04:44:56;;;;;;;12.75;4.82;;;;;;;;;;2303164;58;21052;-83
2022/10/13 04:47:23;;;;;;;11.50;5.18;;;;;;;;;;2540011;54;21040;-83
2022/10/13 04:49:50;;;;;;;9.43;4.80;;;;;;;;;;2540360;54;21040;-83
2022/10/13 04:52:17;;;;;;;8.90;4.95;;;;;;;;;;2540049;54;21044;-83
2022/10/13 04:54:44;;;;;;;12.00;5.07;;;;;;;;;;2302369;58;21084;-83
2022/10/13 04:57:11;;;;;;;11.88;5.60;;;;;;;;;;2302719;58;21112;-83
2022/10/13 04:59:38;;;;;;;8.25;4.60;;;;;;;;;;2302097;58;21111;-83
2022/10/13 05:02:04;;;;;;;8.57;5.10;;;;;;;;;;2302470;58;21084;-83
2022/10/13 05:04:31;;;;;;;10.30;5.18;;;;;;;;;;2303078;58;21068;-83
2022/10/13 05:06:58;;;;;;;11.95;5.20;;;;;;;;;;2539851;54;21082;-83
2022/10/13 05:09:26;;;;;;;8.73;5.43;;;;;;;;;;2538779;54;22121;-78
2022/10/13 05:11:54;;;;;;;8.55;5.47;;;;;;;;;;2537549;54;21056;-78
2022/10/13 05:14:21;;;;;;;7.93;4.22;;;;;;;;;;2301646;58;21107;-82
2022/10/13 05:16:48;;;;;;;10.00;4.95;;;;;;;;;;2302284;58;21099;-83
2022/10/13 05:19:15;;;;;;;18.40;5.47;;;;;;;;;;2302854;58;21055;-83
2022/10/13 05:21:42;;;;;;;8.98;4.93;;;;;;;;;;2539860;54;21581;-83
2022/10/13 05:24:12;;;;;;;11.48;5.03;;;;;;;;;;2539333;54;21613;-82
2022/10/13 05:26:39;;;;;;;9.93;4.75;;;;;;;;;;2303143;58;21131;-82
2022/10/13 05:29:06;;;;;;;11.43;4.75;;;;;;;;;;2540413;54;21052;-82
2022/10/13 05:31:34;;;;;;;11.82;4.80;;;;;;;;;;2302732;58;21298;-83
2022/10/13 05:34:01;;;;;;;10.98;5.07;;;;;;;;;;2540316;54;21080;-82
2022/10/13 05:36:28;;;;;;;9.25;5.10;;;;;;;;;;2302890;58;21080;-82
2022/10/13 05:38:57;;;;;;;9.10;4.50;;;;;;;;;;2539352;54;21921;-82
2022/10/13 05:41:24;;;;;;;9.88;5.15;;;;;;;;;;2539582;54;21102;-82
2022/10/13 05:43:53;;;;;;;8.68;5.00;;;;;;;;;;2302977;58;21088;-82
2022/10/13 05:46:19;;;;;;;9.98;5.03;;;;;;;;;;2538927;54;21537;-83
2022/10/13 05:48:46;;;;;;;10.25;5.62;;;;;;;;;;2540132;54;21076;-83
2022/10/13 05:51:15;;;;;;;10.98;5.62;;;;;;;;;;2302384;58;21076;-82
2022/10/13 05:53:43;;;;;;;7.60;4.70;;;;;;;;;;2303005;58;21043;-82
2022/10/13 05:56:12;;;;;;;10.02;5.93;;;;;;;;;;2302060;58;21207;-83
2022/10/13 05:58:40;;;;;;;11.18;6.03;;;;;;;;;;2302593;58;21108;-83
2022/10/13 06:01:08;;;;;;;8.93;5.10;;;;;;;;;;2302803;58;21040;-82
2022/10/13 06:03:35;;;;;;;9.85;5.50;;;;;;;;;;2303205;58;21040;-83
2022/10/13 06:06:02;;;;;;;9.68;5.62;;;;;;;;;;2540465;54;21067;-83
2022/10/13 06:08:29;;;;;;;7.20;5.07;;;;;;;;;;2302980;58;21040;-83
2022/10/13 06:10:56;;;;;;;12.45;5.80;;;;;;;;;;2539762;54;21156;-83
2022/10/13 06:13:23;;;;;;;11.90;5.45;;;;;;;;;;2302838;58;21036;-83
2022/10/13 06:15:50;;;;;;;10.68;5.37;;;;;;;;;;2303145;58;21160;-83
2022/10/13 06:18:17;;;;;;;9.82;5.70;;;;;;;;;;2303165;58;21036;-83
2022/10/13 06:20:44;;;;;;;13.05;6.80;;;;;;;;;;2539919;54;21107;-83
2022/10/13 06:25:49;;;;;;;16.58;7.15;;;;;;;;;;2359545;56;27934;-75
2022/10/13 06:28:17;;;;;;;9.43;5.40;;;;;;;;;;2374678;56;21035;-74
2022/10/13 06:30:46;;;;;;;13.95;6.35;;;;;;;;;;2628406;52;21035;-74
2022/10/13 06:33:13;;;;;;;13.60;6.90;;;;;;;;;;2375297;56;21043;-75
2022/10/13 06:35:41;;;;;;;12.05;5.12;;;;;;;;;;2375144;56;21039;-75
2022/10/13 06:38:08;;;;;;;11.65;5.18;;;;;;;;;;2375015;56;21084;-75
2022/10/13 06:40:35;;;;;;;10.65;5.90;;;;;;;;;;2373133;56;21325;-75
2022/10/13 06:43:02;;;;;;;12.77;6.30;;;;;;;;;;2490575;54;21119;-75
2022/10/13 06:45:29;;;;;;;9.05;5.10;;;;;;;;;;2299973;55;71805;-81
2022/10/13 06:47:56;;;;;;;16.15;6.03;;;;;;;;;;2239295;60;21152;-81
2022/10/13 06:50:23;;;;;;;11.90;6.68;;;;;;;;;;2239254;60;21635;-81
2022/10/13 06:52:50;;;;;;;8.50;5.05;;;;;;;;;;2238984;60;21142;-81
2022/10/13 06:55:17;;;;;;;14.40;6.18;;;;;;;;;;2238565;60;21139;-80
2022/10/13 06:57:44;;;;;;;10.80;6.18;;;;;;;;;;2236081;60;21675;-80
2022/10/13 07:00:12;;;;;;;13.80;6.30;;;;;;;;;;2251035;56;21063;-80
2022/10/13 07:02:39;;;;;;;14.98;5.78;;;;;;;;;;2238162;60;21084;-81
2022/10/13 07:05:06;;;;;;;14.25;5.97;;;;;;;;;;2292833;56;21143;-80
2022/10/13 07:07:33;;;;;;;14.25;6.87;;;;;;;;;;2238014;60;21071;-80
2022/10/13 07:10:00;;;;;;;11.57;6.62;;;;;;;;;;2237729;60;21132;-81
2022/10/13 07:12:27;;;;;;;9.32;6.10;;;;;;;;;;2238457;60;21151;-80
2022/10/13 07:14:54;;;;;;;16.67;6.82;;;;;;;;;;2238211;60;21175;-82
2022/10/13 07:17:21;;;;;;;16.73;6.90;;;;;;;;;;2237243;60;21128;-80
2022/10/13 07:19:48;;;;;;;13.00;7.70;;;;;;;;;;2237248;60;21139;-80
2022/10/13 07:22:15;;;;;;;10.70;6.15;;;;;;;;;;2237396;60;21084;-79
2022/10/13 07:24:42;;;;;;;10.65;6.28;;;;;;;;;;2238403;60;22180;-79
2022/10/13 07:27:09;;;;;;;11.90;6.93;;;;;;;;;;2236748;60;21603;-80
2022/10/13 07:29:36;;;;;;;9.98;6.15;;;;;;;;;;2236273;60;21222;-81
2022/10/13 07:32:03;;;;;;;12.55;7.12;;;;;;;;;;2237874;58;21083;-82
2022/10/13 07:34:30;;;;;;;13.30;6.28;;;;;;;;;;2238166;60;21115;-80
2022/10/13 07:36:57;;;;;;;11.23;6.85;;;;;;;;;;2240686;56;21088;-81
2022/10/13 07:39:24;;;;;;;11.18;5.82;;;;;;;;;;2243656;56;21196;-80
2022/10/13 07:41:51;;;;;;;12.63;6.78;;;;;;;;;;2237202;60;21595;-82
2022/10/13 07:44:18;;;;;;;13.07;6.43;;;;;;;;;;2243727;56;21085;-80
2022/10/13 07:46:44;;;;;;;10.32;6.05;;;;;;;;;;2258076;56;21123;-81
2022/10/13 07:49:11;;;;;;;12.15;7.03;;;;;;;;;;2239971;60;21070;-82
2022/10/13 07:51:38;;;;;;;14.55;7.45;;;;;;;;;;2263588;56;21075;-82
2022/10/13 07:54:06;;;;;;;19.55;8.25;;;;;;;;;;2245227;56;21079;-83
2022/10/13 07:56:32;;;;;;;13.62;7.60;;;;;;;;;;2240062;60;21179;-82
2022/10/13 07:59:01;;;;;;;14.05;8.20;;;;;;;;;;2239601;60;21128;-83
2022/10/13 08:01:28;;;;;;;12.00;6.60;;;;;;;;;;2239696;60;21128;-83
2022/10/13 08:03:55;;;;;;;14.30;7.62;;;;;;;;;;2240179;60;21155;-81
2022/10/13 08:06:22;;;;;;;17.12;8.18;;;;;;;;;;2256007;56;21150;-82
2022/10/13 08:08:49;;;;;;;10.40;6.30;;;;;;;;;;2239695;60;21103;-83
2022/10/13 08:11:17;;;;;;;11.75;7.18;;;;;;;;;;2239575;60;21080;-82
2022/10/13 08:13:47;;;;;;;14.50;6.68;;;;;;;;;;2239746;60;21092;-82
2022/10/13 08:16:14;;;;;;;11.60;6.95;;;;;;;;;;2279831;56;21128;-82
2022/10/13 08:18:41;;;;;;;12.15;7.12;;;;;;;;;;2239477;60;21076;-83
2022/10/13 08:21:11;;;;;;;11.27;6.72;;;;;;;;;;2239746;59;21088;-83
2022/10/13 08:23:37;;;;;;;12.32;6.57;;;;;;;;;;2251512;56;21100;-83
2022/10/13 08:26:05;;;;;;;13.07;6.97;;;;;;;;;;2239999;60;21123;-83
2022/10/13 08:28:32;;;;;;;15.02;7.57;;;;;;;;;;2240104;60;21119;-83
2022/10/13 08:30:59;;;;;;;13.38;7.47;;;;;;;;;;2240066;60;21064;-82
2022/10/13 08:33:26;;;;;;;14.40;7.03;;;;;;;;;;2238608;60;21426;-86
2022/10/13 08:35:53;;;;;;;11.85;7.47;;;;;;;;;;2239731;60;21151;-83
2022/10/13 08:38:20;;;;;;;15.65;7.95;;;;;;;;;;2240099;60;21127;-83
2022/10/13 08:40:48;;;;;;;15.70;8.73;;;;;;;;;;2239785;60;21111;-82
2022/10/13 08:43:17;;;;;;;15.38;7.60;;;;;;;;;;2239999;60;21124;-82
2022/10/13 08:45:44;;;;;;;12.55;7.75;;;;;;;;;;2239771;60;21080;-82
2022/10/13 08:48:13;;;;;;;15.45;8.60;;;;;;;;;;2256516;56;21143;-82
2022/10/13 08:50:41;;;;;;;22.02;9.13;;;;;;;;;;2239878;60;21587;-82
2022/10/13 08:53:12;;;;;;;15.45;7.78;;;;;;;;;;2239940;60;21079;-82
2022/10/13 08:55:41;;;;;;;17.00;8.20;;;;;;;;;;2239627;60;21075;-83
2022/10/13 08:58:12;;;;;;;18.50;8.90;;;;;;;;;;2239984;60;21127;-83
2022/10/13 09:00:39;;;;;;;12.50;8.70;;;;;;;;;;2239707;60;21083;-82
2022/10/13 09:03:17;;;;;;;22.80;9.02;;;;;;;;;;2239944;60;21654;-83
2022/10/13 09:05:48;;;;;;;16.25;8.55;;;;;;;;;;2240025;60;21067;-82
2022/10/13 09:08:19;;;;;;;17.27;8.73;;;;;;;;;;2238807;60;21139;-82
2022/10/13 09:10:47;;;;;;;22.37;9.50;;;;;;;;;;2247774;56;21547;-81
2022/10/13 09:13:14;;;;;;;17.25;8.95;;;;;;;;;;2238029;60;21124;-82
2022/10/13 09:15:43;;;;;;;19.17;10.30;;;;;;;;;;2273015;56;21571;-83
2022/10/13 09:18:12;;;;;;;17.00;9.30;;;;;;;;;;2238826;60;21544;-81
2022/10/13 09:20:40;;;;;;;15.43;8.77;;;;;;;;;;2251102;56;21278;-81
2022/10/13 09:23:16;;;;;;;18.05;9.65;;;;;;;;;;2236510;60;21136;-77
2022/10/13 09:25:44;;;;;;;16.85;9.25;;;;;;;;;;2236457;60;21071;-80
2022/10/13 09:30:47;;;;;;;24.50;9.70;;;;;;;;;;2325519;57;20114;-77
2022/10/13 09:33:24;;;;;;;21.42;10.73;;;;;;;;;;2319071;58;21068;-78
2022/10/13 09:36:09;;;;;;;20.35;11.73;;;;;;;;;;2307641;55;21123;-77
2022/10/13 09:38:37;;;;;;;20.20;10.63;;;;;;;;;;2527699;54;21075;-75
2022/10/13 09:41:05;;;;;;;23.45;10.93;;;;;;;;;;2292182;55;21062;-76
2022/10/13 09:43:33;;;;;;;20.23;10.98;;;;;;;;;;2292241;58;21046;-77
2022/10/13 09:46:01;;;;;;;20.83;11.12;;;;;;;;;;2294937;55;21067;-77
2022/10/13 09:48:29;;;;;;;22.85;11.10;;;;;;;;;;2292534;58;21118;-75
2022/10/13 09:50:57;;;;;;;18.98;10.35;;;;;;;;;;2292344;58;21063;-75
2022/10/13 09:53:26;;;;;;;19.33;10.38;;;;;;;;;;2338831;55;21134;-78
2022/10/13 09:56:07;;;;;;;18.25;10.63;;;;;;;;;;2292805;58;21054;-78
2022/10/13 09:58:37;;;;;;;17.65;11.45;;;;;;;;;;2292109;58;21070;-77
2022/10/13 10:01:05;;;;;;;17.15;10.27;;;;;;;;;;2291692;58;21083;-77
2022/10/13 10:03:34;;;;;;;19.85;11.05;;;;;;;;;;2291730;58;21703;-77
2022/10/13 10:06:01;;;;;;;24.60;11.48;;;;;;;;;;2291679;58;21059;-79
2022/10/13 10:08:33;;;;;;;19.15;9.93;;;;;;;;;;2292495;58;21063;-81
2022/10/13 10:11:01;;;;;;;18.23;10.35;;;;;;;;;;2291895;55;21114;-80
2022/10/13 10:13:28;;;;;;;22.58;11.00;;;;;;;;;;2293900;58;21066;-82
2022/10/13 10:15:58;;;;;;;18.20;11.05;;;;;;;;;;2293853;58;21090;-80
2022/10/13 10:18:28;;;;;;;18.83;10.82;;;;;;;;;;2293945;58;21073;-80
2022/10/13 10:21:00;;;;;;;21.62;11.82;;;;;;;;;;2293181;58;21086;-80
2022/10/13 10:23:34;;;;;;;25.00;11.23;;;;;;;;;;2297805;55;21082;-76
2022/10/13 10:26:02;;;;;;;18.70;9.82;;;;;;;;;;2291717;58;21075;-74
2022/10/13 10:28:49;;;;;;;22.15;10.52;;;;;;;;;;2291768;58;21083;-76
2022/10/13 10:31:20;;;;;;;24.67;11.20;;;;;;;;;;2276282;58;21050;-76
2022/10/13 10:33:54;;;;;;;20.52;10.60;;;;;;;;;;2291726;58;21122;-76
2022/10/13 10:36:22;;;;;;;17.67;10.10;;;;;;;;;;2292740;58;21059;-76
2022/10/13 10:38:51;;;;;;;17.52;9.57;;;;;;;;;;2315236;54;21082;-75
2022/10/13 10:41:24;;;;;;;16.58;10.35;;;;;;;;;;2291602;58;21646;-76
2022/10/13 10:43:53;;;;;;;24.35;10.80;;;;;;;;;;2302258;55;21563;-76
2022/10/13 10:46:22;;;;;;;16.90;10.52;;;;;;;;;;2291413;58;21063;-77
2022/10/13 10:48:52;;;;;;;28.75;12.00;;;;;;;;;;2290299;58;21142;-77
2022/10/13 10:51:20;;;;;;;17.52;11.35;;;;;;;;;;2291518;58;21178;-76
2022/10/13 10:53:56;;;;;;;19.77;10.50;;;;;;;;;;2291077;58;21066;-77
2022/10/13 10:56:27;;;;;;;19.42;10.65;;;;;;;;;;2291295;58;21086;-75
2022/10/13 10:59:02;;;;;;;17.83;10.73;;;;;;;;;;2290474;58;21118;-77
2022/10/13 11:01:33;;;;;;;18.98;10.45;;;;;;;;;;2291061;58;21051;-76
2022/10/13 11:04:13;;;;;;;16.90;10.23;;;;;;;;;;2301408;55;21162;-77
2022/10/13 11:06:41;;;;;;;17.15;10.18;;;;;;;;;;2312665;55;21406;-76
2022/10/13 11:09:11;;;;;;;17.12;9.73;;;;;;;;;;2291524;58;21075;-77
2022/10/13 11:11:41;;;;;;;24.55;11.23;;;;;;;;;;2291384;58;21118;-74
2022/10/13 11:14:36;;;;;;;20.10;10.23;;;;;;;;;;2290624;58;21575;-76
2022/10/13 11:17:15;;;;;;;16.02;9.20;;;;;;;;;;2271013;58;21035;-77
2022/10/13 11:19:42;;;;;;;18.90;10.10;;;;;;;;;;2290797;58;21067;-77
2022/10/13 11:22:13;;;;;;;13.30;8.07;;;;;;;;;;2291596;58;21075;-76
2022/10/13 11:24:54;;;;;;;18.33;9.55;;;;;;;;;;2290886;58;21197;-76
2022/10/13 11:27:25;;;;;;;15.95;9.15;;;;;;;;;;2291654;58;21328;-74
2022/10/13 11:29:54;;;;;;;15.75;9.50;;;;;;;;;;2290559;58;21130;-76
2022/10/13 11:32:43;;;;;;;21.20;10.90;;;;;;;;;;2289217;58;21169;-75
2022/10/13 11:35:21;;;;;;;18.23;10.43;;;;;;;;;;2294518;55;21206;-76
2022/10/13 11:37:52;;;;;;;20.33;10.77;;;;;;;;;;2291697;58;21106;-75
2022/10/13 11:40:24;;;;;;;15.95;9.30;;;;;;;;;;2409002;55;21130;-75
2022/10/13 11:43:16;;;;;;;16.08;9.25;;;;;;;;;;2291787;58;21050;-75
2022/10/13 11:48:53;;;;;;;15.75;8.75;;;;;;;;;;2328781;57;22314;-77
2022/10/13 11:51:30;;;;;;;18.98;9.07;;;;;;;;;;2346769;57;21097;-77
2022/10/13 11:54:01;;;;;;;15.75;9.80;;;;;;;;;;2359015;56;21043;-76
2022/10/13 11:56:34;;;;;;;17.33;9.65;;;;;;;;;;2408494;52;21076;-77
2022/10/13 11:59:02;;;;;;;15.02;8.43;;;;;;;;;;2495600;52;21109;-77
2022/10/13 12:01:28;;;;;;;17.55;9.38;;;;;;;;;;2645368;52;21082;-76
2022/10/13 12:03:56;;;;;;;14.13;8.45;;;;;;;;;;2388936;56;21030;-77
2022/10/13 12:06:32;;;;;;;14.30;9.13;;;;;;;;;;2388287;56;21879;-77
2022/10/13 12:09:02;;;;;;;17.75;9.45;;;;;;;;;;2387897;56;21110;-78
2022/10/13 12:11:30;;;;;;;19.00;8.90;;;;;;;;;;2388762;56;21027;-77
2022/10/13 12:13:58;;;;;;;20.40;9.27;;;;;;;;;;2389381;56;21027;-77
2022/10/13 12:16:25;;;;;;;19.35;8.75;;;;;;;;;;2388182;56;21054;-77
2022/10/13 12:18:52;;;;;;;14.43;7.72;;;;;;;;;;2389495;56;21035;-78
2022/10/13 12:21:20;;;;;;;14.13;9.02;;;;;;;;;;2388191;56;21110;-77
2022/10/13 12:23:47;;;;;;;17.92;8.35;;;;;;;;;;2387726;56;21106;-75
2022/10/13 12:26:16;;;;;;;19.20;9.63;;;;;;;;;;2387906;56;21042;-75
2022/10/13 12:28:46;;;;;;;15.85;8.30;;;;;;;;;;2388002;56;21038;-75
2022/10/13 12:31:18;;;;;;;13.05;8.00;;;;;;;;;;2575280;52;21029;-74
2022/10/13 12:33:51;;;;;;;14.68;8.07;;;;;;;;;;2388604;56;21400;-75
2022/10/13 12:36:20;;;;;;;14.07;7.45;;;;;;;;;;2388578;56;21517;-75
2022/10/13 12:38:49;;;;;;;12.50;8.07;;;;;;;;;;2601771;52;21117;-75
2022/10/13 12:41:18;;;;;;;13.13;7.45;;;;;;;;;;2388615;56;21105;-75
2022/10/13 12:43:45;;;;;;;13.05;7.70;;;;;;;;;;2383152;53;21321;-78
2022/10/13 12:46:12;;;;;;;14.60;8.43;;;;;;;;;;2569340;54;21059;-79
2022/10/13 12:48:39;;;;;;;14.63;8.20;;;;;;;;;;2325971;58;21637;-79
2022/10/13 12:51:16;;;;;;;14.65;7.82;;;;;;;;;;2569345;54;21111;-81
2022/10/13 12:53:44;;;;;;;13.10;7.25;;;;;;;;;;2326681;58;21174;-78
2022/10/13 12:56:20;;;;;;;19.85;8.15;;;;;;;;;;2326452;58;21123;-79
2022/10/13 12:58:47;;;;;;;12.57;8.02;;;;;;;;;;2568595;54;21059;-81
2022/10/13 13:01:25;;;;;;;12.43;7.62;;;;;;;;;;2324430;58;21039;-77
2022/10/13 13:03:54;;;;;;;12.95;8.27;;;;;;;;;;2326340;58;21705;-78
2022/10/13 13:06:23;;;;;;;17.08;9.10;;;;;;;;;;2325676;58;21047;-81
2022/10/13 13:09:07;;;;;;;19.08;7.87;;;;;;;;;;2325280;58;21127;-80
2022/10/13 13:11:35;;;;;;;13.77;7.50;;;;;;;;;;2568000;54;21638;-79
2022/10/13 13:14:20;;;;;;;10.68;6.95;;;;;;;;;;2325834;58;21114;-80
2022/10/13 13:17:01;;;;;;;13.80;7.05;;;;;;;;;;2325639;58;21035;-80
2022/10/13 13:19:30;;;;;;;13.77;7.55;;;;;;;;;;2326046;58;21055;-79
2022/10/13 13:21:57;;;;;;;14.15;7.12;;;;;;;;;;2566245;54;21674;-80
2022/10/13 13:24:24;;;;;;;10.82;6.85;;;;;;;;;;2325622;58;21752;-80
2022/10/13 13:26:52;;;;;;;14.27;7.18;;;;;;;;;;2324826;58;21796;-79
2022/10/13 13:29:18;;;;;;;15.70;7.03;;;;;;;;;;2570079;54;21039;-81
2022/10/13 13:31:46;;;;;;;9.20;5.72;;;;;;;;;;2326893;58;21055;-81
2022/10/13 13:34:13;;;;;;;11.82;7.12;;;;;;;;;;2570333;54;21109;-82
2022/10/13 13:36:40;;;;;;;12.25;7.15;;;;;;;;;;2326925;58;21063;-82
2022/10/13 13:39:12;;;;;;;11.68;6.95;;;;;;;;;;2569427;54;21083;-82
2022/10/13 13:41:39;;;;;;;18.00;7.97;;;;;;;;;;2568919;54;21151;-81
2022/10/13 13:44:06;;;;;;;14.95;7.35;;;;;;;;;;2327174;58;21252;-82
2022/10/13 13:46:34;;;;;;;10.23;6.53;;;;;;;;;;2569072;54;21083;-78
2022/10/13 13:49:01;;;;;;;16.75;7.45;;;;;;;;;;2327104;58;21036;-82
2022/10/13 13:51:28;;;;;;;15.60;6.87;;;;;;;;;;2326747;58;21138;-81
2022/10/13 13:53:55;;;;;;;17.08;6.55;;;;;;;;;;2569947;54;21051;-81
2022/10/13 13:56:22;;;;;;;16.58;7.82;;;;;;;;;;2326418;58;21059;-82
2022/10/13 13:58:49;;;;;;;19.85;7.43;;;;;;;;;;2327397;58;21063;-81
2022/10/13 14:01:16;;;;;;;13.35;7.00;;;;;;;;;;2327506;58;21039;-81
2022/10/13 14:03:44;;;;;;;12.18;6.07;;;;;;;;;;2327251;58;21075;-81
2022/10/13 14:06:17;;;;;;;13.65;6.95;;;;;;;;;;2327282;58;21715;-78
2022/10/13 14:08:44;;;;;;;12.40;5.93;;;;;;;;;;2326621;58;21082;-80
2022/10/13 14:11:11;;;;;;;13.95;6.43;;;;;;;;;;2326080;58;21050;-81
2022/10/13 14:13:38;;;;;;;14.63;6.10;;;;;;;;;;2326439;58;21214;-81
2022/10/13 14:16:05;;;;;;;13.77;7.03;;;;;;;;;;2327568;58;21097;-81
2022/10/13 14:18:32;;;;;;;10.32;5.40;;;;;;;;;;2327143;58;21063;-83
2022/10/13 14:20:59;;;;;;;11.45;6.12;;;;;;;;;;2569643;54;21043;-82
2022/10/13 14:23:26;;;;;;;10.93;6.07;;;;;;;;;;2327360;58;21054;-81
2022/10/13 14:25:53;;;;;;;12.55;6.22;;;;;;;;;;2325806;58;21185;-81
2022/10/13 14:28:20;;;;;;;11.98;6.50;;;;;;;;;;2569228;54;21122;-81
2022/10/13 14:30:47;;;;;;;13.68;5.72;;;;;;;;;;2568970;54;21191;-81
2022/10/13 14:33:18;;;;;;;11.65;6.15;;;;;;;;;;2569580;54;21083;-81
2022/10/13 14:35:45;;;;;;;13.77;7.10;;;;;;;;;;2568694;54;21059;-81
2022/10/13 14:38:12;;;;;;;11.25;6.03;;;;;;;;;;2326413;58;21055;-81
2022/10/13 14:40:41;;;;;;;11.43;5.87;;;;;;;;;;2569000;54;21118;-82
2022/10/13 14:43:08;;;;;;;10.65;5.93;;;;;;;;;;2326521;58;21055;-81
2022/10/13 14:45:35;;;;;;;8.88;5.87;;;;;;;;;;2326588;58;21122;-81
2022/10/13 14:48:02;;;;;;;14.70;6.20;;;;;;;;;;2326924;58;21135;-81